Time;durP1;ratioP1;P1;durP2;ratioP2;P2;SDS_P1;SDS_P2;PMS_P1;PMS_P2;Temp;Humidity;BMP_temperature;BMP_pressure;BME280_temperature;BME280_humidity;BME280_pressure;Samples;Min_cycle;Max_cycle;Signal;HPM_P1;HPM_P2
2021/10/20 00:01:47;;;;;;;26.92;17.13;;;15.70;99.90;;;;;;4969842;28;20089;-82
2021/10/20 00:04:12;;;;;;;25.02;16.75;;;15.60;99.90;;;;;;4972756;28;20169;-77
2021/10/20 00:06:38;;;;;;;26.23;17.20;;;15.60;99.90;;;;;;4976191;28;20514;-78
2021/10/20 00:09:05;;;;;;;26.20;16.50;;;15.60;99.90;;;;;;4969466;28;20725;-77
2021/10/20 00:11:30;;;;;;;28.98;17.25;;;15.50;99.90;;;;;;4976213;28;20042;-79
2021/10/20 00:13:56;;;;;;;24.30;16.80;;;15.50;99.90;;;;;;4978284;28;20173;-80
2021/10/20 00:16:23;;;;;;;25.75;17.05;;;15.50;99.90;;;;;;4969225;28;20051;-84
2021/10/20 00:18:49;;;;;;;30.60;17.40;;;15.50;99.90;;;;;;4987489;28;20034;-87
2021/10/20 00:21:19;;;;;;;28.48;16.90;;;15.40;99.90;;;;;;4952028;28;20157;-82
2021/10/20 00:23:46;;;;;;;27.15;16.05;;;15.40;99.90;;;;;;4977333;28;20141;-85
2021/10/20 00:26:12;;;;;;;25.15;15.80;;;15.40;99.90;;;;;;4974396;28;20038;-86
2021/10/20 00:28:38;;;;;;;24.23;16.65;;;15.50;99.90;;;;;;4968326;28;20066;-87
2021/10/20 00:31:06;;;;;;;23.38;15.98;;;15.50;99.90;;;;;;4985701;28;20075;-87
2021/10/20 00:33:58;;;;;;;24.92;15.73;;;15.50;99.90;;;;;;4951232;28;20466;-86
2021/10/20 00:38:31;;;;;;;21.17;15.35;;;15.50;99.90;;;;;;4967168;28;20051;-85
2021/10/20 00:41:09;;;;;;;23.85;15.65;;;15.70;99.90;;;;;;4954741;28;20441;-86
2021/10/20 00:43:43;;;;;;;22.98;15.23;;;15.30;99.90;;;;;;4953923;28;20042;-87
2021/10/20 00:46:33;;;;;;;25.38;16.05;;;15.40;99.90;;;;;;4961940;28;20051;-84
2021/10/20 00:48:59;;;;;;;21.85;15.05;;;15.40;99.90;;;;;;4947916;28;20340;-85
2021/10/20 00:51:34;;;;;;;24.92;16.40;;;15.40;99.90;;;;;;4986854;28;20081;-89
2021/10/20 00:54:01;;;;;;;26.25;15.55;;;15.40;99.90;;;;;;4952839;28;20039;-84
2021/10/20 00:56:33;;;;;;;27.88;14.45;;;15.30;99.90;;;;;;4966043;28;20075;-88
2021/10/20 00:59:07;;;;;;;23.13;15.43;;;15.40;99.90;;;;;;4953711;28;20067;-85
2021/10/20 01:01:42;;;;;;;21.67;14.98;;;15.90;99.90;;;;;;4954018;28;20034;-88
2021/10/20 01:04:10;;;;;;;;;;;15.40;99.90;;;;;;4974432;28;20396;-87
2021/10/20 01:06:37;;;;;;;22.52;14.25;;;15.30;99.90;;;;;;4967484;28;20009;-86
2021/10/20 01:09:03;;;;;;;23.25;14.02;;;15.40;99.90;;;;;;4956492;28;20770;-85
2021/10/20 01:11:29;;;;;;;20.88;14.05;;;15.40;99.90;;;;;;4956959;28;20078;-84
2021/10/20 01:13:55;;;;;;;23.48;14.52;;;15.40;99.90;;;;;;4983377;28;20097;-86
2021/10/20 01:16:46;;;;;;;21.40;13.65;;;15.40;99.90;;;;;;4972553;28;20031;-85
2021/10/20 01:19:14;;;;;;;21.20;14.43;;;15.40;99.90;;;;;;4962923;28;20039;-86
2021/10/20 01:21:41;;;;;;;21.55;13.93;;;15.40;99.90;;;;;;4953430;28;20070;-87
2021/10/20 01:24:07;;;;;;;22.80;13.77;;;15.40;99.90;;;;;;4970674;28;20046;-88
2021/10/20 01:26:33;;;;;;;21.15;13.82;;;15.50;99.90;;;;;;4975562;28;20049;-87
2021/10/20 01:28:59;;;;;;;19.63;12.25;;;15.50;99.90;;;;;;4999279;28;20405;-87
2021/10/20 01:31:25;;;;;;;27.60;13.00;;;15.50;99.90;;;;;;4953521;28;20059;-87
2021/10/20 01:33:51;;;;;;;16.25;12.23;;;15.50;99.90;;;;;;4958755;28;20105;-88
2021/10/20 01:36:19;;;;;;;21.63;13.48;;;15.50;99.90;;;;;;4971149;28;20053;-88
2021/10/20 01:38:53;;;;;;;15.97;12.10;;;15.50;99.90;;;;;;4990437;28;20043;-85
2021/10/20 01:41:19;;;;;;;18.13;12.52;;;15.50;99.90;;;;;;4956365;28;20043;-87
2021/10/20 01:43:48;;;;;;;16.75;11.65;;;15.50;99.90;;;;;;4958089;28;20067;-86
2021/10/20 01:46:19;;;;;;;18.95;11.77;;;15.60;99.90;;;;;;4975117;28;20046;-85
2021/10/20 01:48:46;;;;;;;17.83;12.07;;;15.50;99.90;;;;;;4960983;28;20185;-89
2021/10/20 01:51:13;;;;;;;16.05;11.98;;;15.50;99.90;;;;;;4976825;28;20043;-87
2021/10/20 01:53:39;;;;;;;16.40;11.30;;;15.50;99.90;;;;;;4981506;28;20059;-86
2021/10/20 01:56:07;;;;;;;14.65;11.60;;;15.50;99.90;;;;;;4969492;28;20057;-84
2021/10/20 01:58:33;;;;;;;15.57;11.77;;;15.50;99.90;;;;;;4988789;28;20489;-85
2021/10/20 02:00:59;;;;;;;14.30;11.13;;;15.50;99.90;;;;;;4956932;28;20085;-89
2021/10/20 02:03:26;;;;;;;15.90;11.70;;;15.50;99.90;;;;;;4971131;28;20090;-87
2021/10/20 02:05:55;;;;;;;17.42;11.55;;;15.70;99.90;;;;;;4982592;28;20042;-85
2021/10/20 02:08:22;;;;;;;16.35;11.02;;;15.50;99.90;;;;;;4964554;28;20474;-84
2021/10/20 02:10:49;;;;;;;15.43;11.50;;;15.50;99.90;;;;;;4973600;28;20101;-87
2021/10/20 02:13:15;;;;;;;15.10;11.02;;;15.50;99.90;;;;;;4941633;28;20053;-86
2021/10/20 02:16:05;;;;;;;15.23;10.98;;;15.60;99.90;;;;;;4963653;28;20445;-88
2021/10/20 02:18:34;;;;;;;15.68;10.65;;;15.60;99.90;;;;;;4956626;28;20027;-86
2021/10/20 02:21:06;;;;;;;17.52;11.00;;;15.50;99.90;;;;;;4973484;28;20113;-86
2021/10/20 02:23:40;;;;;;;14.93;10.50;;;15.70;99.90;;;;;;4963756;28;20073;-85
2021/10/20 02:26:06;;;;;;;14.30;10.50;;;15.60;99.90;;;;;;4978012;28;20043;-85
2021/10/20 02:28:42;;;;;;;15.25;10.70;;;15.50;99.90;;;;;;4975776;28;20042;-84
2021/10/20 02:31:08;;;;;;;17.10;11.05;;;15.60;99.90;;;;;;4983873;28;20527;-85
2021/10/20 02:33:36;;;;;;;16.75;10.35;;;15.50;99.90;;;;;;4972096;28;20138;-85
2021/10/20 02:36:12;;;;;;;17.10;10.60;;;15.50;99.90;;;;;;4971165;28;20050;-87
2021/10/20 02:38:37;;;;;;;13.85;10.73;;;15.50;99.90;;;;;;4973533;28;20034;-88
2021/10/20 02:41:03;;;;;;;15.00;10.07;;;15.50;99.90;;;;;;4988140;28;20122;-84
2021/10/20 02:43:35;;;;;;;16.67;10.30;;;15.50;99.90;;;;;;5001714;28;20069;-88
2021/10/20 02:46:01;;;;;;;12.65;9.57;;;15.70;99.90;;;;;;4955783;28;20464;-88
2021/10/20 02:48:36;;;;;;;16.08;10.32;;;15.40;99.90;;;;;;4977325;28;20066;-86
2021/10/20 02:51:04;;;;;;;17.15;10.32;;;15.30;99.90;;;;;;4982264;28;20047;-86
2021/10/20 02:53:41;;;;;;;20.30;10.50;;;15.20;99.90;;;;;;4971106;28;20066;-87
2021/10/20 02:56:17;;;;;;;14.35;10.77;;;15.20;99.90;;;;;;4964187;28;20510;-86
2021/10/20 02:58:49;;;;;;;19.45;10.40;;;15.10;99.90;;;;;;4972888;28;20104;-85
2021/10/20 03:01:21;;;;;;;18.50;9.90;;;15.10;99.90;;;;;;4969711;28;20459;-86
2021/10/20 03:03:52;;;;;;;19.73;9.95;;;15.10;99.90;;;;;;4984044;28;20053;-87
2021/10/20 03:06:25;;;;;;;14.43;10.15;;;15.00;99.90;;;;;;4955761;28;20100;-84
2021/10/20 03:09:12;;;;;;;18.40;10.48;;;15.00;99.90;;;;;;4956502;28;20043;-86
2021/10/20 03:11:40;;;;;;;14.38;10.23;;;15.30;99.90;;;;;;4967334;28;20050;-86
2021/10/20 03:14:09;;;;;;;16.05;10.63;;;14.90;99.90;;;;;;4969766;28;20494;-89
2021/10/20 03:17:14;;;;;;;19.15;10.80;;;14.90;99.90;;;;;;4987545;28;20059;-87
2021/10/20 03:19:49;;;;;;;17.70;10.40;;;14.80;99.90;;;;;;4965843;28;20043;-88
2021/10/20 03:22:24;;;;;;;17.02;10.18;;;14.80;99.90;;;;;;4961866;28;20069;-87
2021/10/20 03:25:05;;;;;;;19.25;10.45;;;14.70;99.90;;;;;;4965013;28;20074;-84
2021/10/20 03:27:31;;;;;;;13.88;9.93;;;14.70;99.90;;;;;;4952380;28;20049;-87
2021/10/20 03:34:02;;;;;;;16.25;11.13;;;14.60;99.90;;;;;;4973267;28;20188;-85
2021/10/20 03:36:38;;;;;;;15.10;10.38;;;14.80;99.90;;;;;;4953836;28;20055;-85
2021/10/20 03:39:28;;;;;;;22.45;11.48;;;14.50;99.90;;;;;;4954254;28;20599;-86
2021/10/20 03:42:06;;;;;;;13.63;10.73;;;14.30;99.90;;;;;;4977005;28;20403;-89
2021/10/20 03:45:13;;;;;;;18.00;10.20;;;14.30;99.90;;;;;;4966721;28;20050;-85
2021/10/20 03:47:39;;;;;;;20.17;11.55;;;14.40;99.90;;;;;;4967550;28;20149;-86
2021/10/20 03:50:09;;;;;;;17.65;11.63;;;14.40;99.90;;;;;;4957239;28;20389;-87
2021/10/20 03:52:35;;;;;;;19.67;11.65;;;14.30;99.90;;;;;;4954541;28;20400;-84
2021/10/20 03:55:05;;;;;;;14.48;11.10;;;14.30;99.90;;;;;;4956669;28;20047;-86
2021/10/20 03:57:36;;;;;;;17.88;11.93;;;14.40;99.90;;;;;;4969839;28;20042;-86
2021/10/20 04:00:08;;;;;;;23.70;12.38;;;14.40;99.90;;;;;;4976163;28;20416;-86
2021/10/20 04:02:34;;;;;;;19.40;11.95;;;14.30;99.90;;;;;;4955147;28;20039;-87
2021/10/20 04:05:10;;;;;;;19.15;11.05;;;14.40;99.90;;;;;;4959559;28;20051;-85
2021/10/20 04:07:49;;;;;;;19.80;12.63;;;14.30;99.90;;;;;;4972022;28;20046;-85
2021/10/20 04:10:31;;;;;;;19.50;11.50;;;14.50;99.90;;;;;;4967979;28;20116;-87
2021/10/20 04:12:57;;;;;;;22.40;11.65;;;14.40;99.90;;;;;;4968086;28;20045;-86
2021/10/20 04:15:25;;;;;;;15.93;11.15;;;14.40;99.90;;;;;;4972385;28;20406;-88
2021/10/20 04:17:51;;;;;;;15.20;11.43;;;14.40;99.90;;;;;;4971595;28;20042;-87
2021/10/20 04:20:28;;;;;;;21.65;11.90;;;14.50;99.90;;;;;;4957371;28;20026;-86
2021/10/20 04:23:55;;;;;;;;;;;;;;;;;;;;;
2021/10/20 04:27:11;;;;;;;18.23;12.52;;;14.40;99.90;;;;;;4910086;29;20044;-86
2021/10/20 04:29:50;;;;;;;19.00;12.55;;;14.50;99.90;;;;;;4912724;29;20052;-86
2021/10/20 04:32:21;;;;;;;17.50;11.77;;;14.60;99.90;;;;;;4912239;29;20056;-89
2021/10/20 04:35:02;;;;;;;23.13;12.32;;;14.50;99.90;;;;;;4900201;29;20035;-86
2021/10/20 04:38:16;;;;;;;19.02;13.13;;;14.40;99.90;;;;;;4902289;29;20044;-87
2021/10/20 04:40:54;;;;;;;22.88;12.57;;;14.60;99.90;;;;;;4903246;29;20040;-85
2021/10/20 04:43:19;;;;;;;;;;;14.40;99.90;;;;;;4899345;29;20046;-88
2021/10/20 04:45:57;;;;;;;22.80;12.57;;;14.70;99.90;;;;;;4929336;29;19922;-87
2021/10/20 04:48:26;;;;;;;21.25;12.52;;;14.80;99.90;;;;;;4927511;29;20058;-89
2021/10/20 04:50:51;;;;;;;19.33;12.13;;;14.90;99.90;;;;;;4925443;29;20439;-88
2021/10/20 04:53:17;;;;;;;19.55;12.38;;;15.10;99.90;;;;;;4912540;29;20067;-83
2021/10/20 04:55:43;;;;;;;23.48;13.10;;;14.80;99.90;;;;;;4892251;29;20044;-83
2021/10/20 04:58:08;;;;;;;20.83;12.07;;;14.90;99.90;;;;;;4914898;29;20442;-85
2021/10/20 05:00:36;;;;;;;20.55;12.68;;;14.90;99.90;;;;;;4948101;29;20040;-82
2021/10/20 05:03:03;;;;;;;18.83;11.95;;;14.90;99.90;;;;;;4949156;29;20055;-85
2021/10/20 05:05:29;;;;;;;22.58;12.75;;;14.90;99.90;;;;;;4935145;29;20173;-83
2021/10/20 05:07:58;;;;;;;20.27;11.48;;;14.90;99.90;;;;;;4952985;29;20110;-82
2021/10/20 05:10:26;;;;;;;18.67;12.43;;;14.90;99.90;;;;;;4948638;29;20046;-85
2021/10/20 05:12:52;;;;;;;19.92;12.60;;;14.90;99.90;;;;;;4950995;28;20048;-83
2021/10/20 05:15:18;;;;;;;22.30;13.23;;;15.00;99.90;;;;;;4967220;28;20117;-83
2021/10/20 05:17:44;;;;;;;23.20;13.40;;;15.00;99.90;;;;;;4956433;29;20118;-85
2021/10/20 05:20:11;;;;;;;18.67;13.07;;;15.00;99.90;;;;;;4931861;29;20035;-86
2021/10/20 05:22:38;;;;;;;17.80;12.45;;;15.00;99.90;;;;;;4948347;29;20046;-83
2021/10/20 05:25:06;;;;;;;20.63;13.40;;;15.00;99.90;;;;;;4940238;29;20142;-82
2021/10/20 05:27:32;;;;;;;18.42;12.95;;;15.00;99.90;;;;;;4937657;29;20335;-84
2021/10/20 05:29:57;;;;;;;22.02;13.93;;;15.00;99.90;;;;;;4969674;28;20061;-82
2021/10/20 05:32:30;;;;;;;22.25;13.68;;;15.00;99.90;;;;;;4990855;28;20034;-85
2021/10/20 05:34:56;;;;;;;20.98;12.75;;;15.10;99.90;;;;;;4975707;28;20053;-85
2021/10/20 05:37:22;;;;;;;19.45;13.55;;;15.20;99.90;;;;;;4962386;28;20038;-85
2021/10/20 05:39:48;;;;;;;25.00;14.20;;;15.10;99.90;;;;;;4978036;28;20065;-82
2021/10/20 05:42:17;;;;;;;23.75;14.50;;;15.20;99.90;;;;;;4972123;28;20042;-78
2021/10/20 05:44:43;;;;;;;24.02;14.07;;;15.20;99.90;;;;;;4977794;28;20731;-86
2021/10/20 05:50:36;;;;;;;28.75;14.15;;;15.30;99.90;;;;;;4994928;28;20104;-86
2021/10/20 05:53:02;;;;;;;21.52;14.50;;;15.40;99.90;;;;;;4960173;28;20046;-82
2021/10/20 05:55:28;;;;;;;21.35;14.60;;;15.40;99.90;;;;;;4977602;28;20084;-83
2021/10/20 05:57:53;;;;;;;21.50;14.77;;;15.40;99.90;;;;;;4961223;28;20041;-83
2021/10/20 06:00:19;;;;;;;20.45;14.15;;;15.40;99.90;;;;;;4977426;28;20130;-84
2021/10/20 06:02:45;;;;;;;20.75;14.48;;;15.30;99.90;;;;;;4961020;28;20474;-78
2021/10/20 06:05:10;;;;;;;22.77;14.52;;;15.40;99.90;;;;;;4964070;28;20125;-81
2021/10/20 06:07:44;;;;;;;22.13;14.52;;;15.40;99.90;;;;;;5009462;28;20046;-80
2021/10/20 06:10:13;;;;;;;20.48;13.25;;;15.40;99.90;;;;;;4977055;28;20093;-83
2021/10/20 06:12:39;;;;;;;19.77;14.25;;;15.40;99.90;;;;;;4961176;28;20050;-83
2021/10/20 06:15:08;;;;;;;21.02;13.88;;;15.40;99.90;;;;;;4974232;28;20042;-83
2021/10/20 06:17:36;;;;;;;19.25;12.82;;;15.40;99.90;;;;;;4960629;28;20042;-85
2021/10/20 06:20:05;;;;;;;25.20;14.88;;;15.40;99.90;;;;;;4959832;28;20052;-88
2021/10/20 06:22:42;;;;;;;24.63;14.43;;;15.50;99.90;;;;;;4976282;28;20046;-86
2021/10/20 06:25:23;;;;;;;22.75;14.35;;;15.50;99.90;;;;;;4971020;28;20501;-88
2021/10/20 06:27:50;;;;;;;23.77;14.77;;;15.60;99.90;;;;;;4972865;28;20051;-85
2021/10/20 06:30:21;;;;;;;22.77;14.82;;;15.60;99.90;;;;;;4954936;28;20481;-86
2021/10/20 06:32:47;;;;;;;21.80;14.57;;;15.60;99.90;;;;;;4956476;28;20073;-87
2021/10/20 06:35:14;;;;;;;23.33;14.45;;;15.60;99.90;;;;;;4954982;28;20075;-86
2021/10/20 06:38:07;;;;;;;27.83;14.73;;;15.60;99.90;;;;;;4957019;28;20482;-85
2021/10/20 06:40:56;;;;;;;;;;;15.70;99.90;;;;;;4978115;28;20051;-88
2021/10/20 06:43:22;;;;;;;23.98;14.80;;;15.70;99.90;;;;;;4971841;28;19925;-82
2021/10/20 06:46:26;;;;;;;24.08;14.13;;;15.70;99.90;;;;;;4939248;28;20765;-82
2021/10/20 06:49:15;;;;;;;23.05;14.35;;;15.70;99.90;;;;;;4937910;28;20557;-84
2021/10/20 06:52:04;;;;;;;21.77;14.13;;;15.70;99.90;;;;;;4840087;29;20160;-85
2021/10/20 06:55:07;;;;;;;;;;;;;;;;;;;;;
2021/10/20 06:58:34;;;;;;;23.48;14.40;;;16.00;99.90;;;;;;4839266;29;20122;-84
2021/10/20 07:01:53;;;;;;;25.90;14.90;;;16.00;99.90;;;;;;4835046;29;20054;-84
2021/10/20 07:04:26;;;;;;;21.48;15.90;;;15.80;99.90;;;;;;4821037;29;20106;-80
2021/10/20 07:07:35;;;;;;;22.55;14.32;;;15.80;99.90;;;;;;4838416;29;20141;-84
2021/10/20 07:10:05;;;;;;;19.73;13.80;;;15.80;99.90;;;;;;4777702;29;20047;-82
2021/10/20 07:12:31;;;;;;;21.67;14.88;;;15.80;99.90;;;;;;4782484;29;20579;-81
2021/10/20 07:14:58;;;;;;;23.13;14.02;;;15.80;99.90;;;;;;4782566;29;20143;-83
2021/10/20 07:17:44;;;;;;;26.85;16.45;;;15.80;99.90;;;;;;4803664;29;20392;-82
2021/10/20 07:20:10;;;;;;;24.42;15.77;;;15.70;99.90;;;;;;4787705;29;20059;-81
2021/10/20 07:22:41;;;;;;;25.98;15.93;;;15.70;99.90;;;;;;4787792;29;20055;-81
2021/10/20 07:25:39;;;;;;;23.45;15.55;;;15.70;99.90;;;;;;4804894;29;20058;-81
2021/10/20 07:28:30;;;;;;;25.98;15.73;;;15.70;99.90;;;;;;4798876;29;20072;-82
2021/10/20 07:31:48;;;;;;;22.95;15.45;;;15.70;99.90;;;;;;4854941;29;20120;-83
2021/10/20 07:34:21;;;;;;;25.90;15.25;;;15.80;99.90;;;;;;4860335;29;20060;-83
2021/10/20 07:36:47;;;;;;;25.88;15.55;;;15.80;99.90;;;;;;4859477;29;20086;-84
2021/10/20 07:39:13;;;;;;;21.30;13.93;;;15.90;99.90;;;;;;4858864;29;20082;-84
2021/10/20 07:41:39;;;;;;;23.85;14.50;;;15.90;99.90;;;;;;4859022;29;20037;-81
2021/10/20 07:44:08;;;;;;;25.90;15.07;;;15.90;99.90;;;;;;4844225;29;20616;-81
2021/10/20 07:46:34;;;;;;;23.13;15.02;;;15.90;99.90;;;;;;4888549;29;20160;-83
2021/10/20 07:49:00;;;;;;;21.73;14.93;;;15.90;99.90;;;;;;4949608;29;20157;-82
2021/10/20 07:51:26;;;;;;;23.73;16.00;;;16.00;99.90;;;;;;4950397;28;20134;-83
2021/10/20 07:53:52;;;;;;;25.13;15.30;;;16.00;99.90;;;;;;4926315;29;20062;-82
2021/10/20 07:56:17;;;;;;;22.40;15.63;;;15.90;99.90;;;;;;4950682;29;20057;-82
2021/10/20 07:58:43;;;;;;;25.42;15.80;;;15.90;99.90;;;;;;4935224;29;20118;-80
2021/10/20 08:01:11;;;;;;;22.95;16.33;;;15.90;99.90;;;;;;4933833;29;20420;-85
2021/10/20 08:03:37;;;;;;;23.48;15.85;;;15.80;99.90;;;;;;4951930;28;20106;-89
2021/10/20 08:06:03;;;;;;;27.15;16.27;;;15.80;99.90;;;;;;4935638;29;20446;-82
2021/10/20 08:08:29;;;;;;;20.88;14.98;;;15.80;99.90;;;;;;4951858;28;20051;-83
2021/10/20 08:10:54;;;;;;;25.30;14.95;;;15.80;99.90;;;;;;4952924;28;20106;-81
2021/10/20 08:13:20;;;;;;;23.77;14.27;;;15.80;99.90;;;;;;4952325;28;20391;-84
2021/10/20 08:15:48;;;;;;;20.42;13.55;;;15.90;99.90;;;;;;4951606;29;20459;-84
2021/10/20 08:18:13;;;;;;;22.33;14.00;;;15.90;99.90;;;;;;4935482;29;20726;-81
2021/10/20 08:20:39;;;;;;;20.58;13.93;;;16.00;99.90;;;;;;4950250;29;20082;-83
2021/10/20 08:23:06;;;;;;;16.70;13.20;;;15.90;99.90;;;;;;4952024;28;20470;-85
2021/10/20 08:25:36;;;;;;;21.15;12.95;;;15.90;99.90;;;;;;4935450;29;20105;-82
2021/10/20 08:28:05;;;;;;;22.08;12.68;;;16.00;99.90;;;;;;4948014;29;20054;-83
2021/10/20 08:30:34;;;;;;;15.95;11.55;;;16.10;99.90;;;;;;4949588;28;20067;-84
2021/10/20 08:33:00;;;;;;;18.90;12.10;;;16.20;99.90;;;;;;4954132;28;20446;-83
2021/10/20 08:35:25;;;;;;;19.20;12.43;;;16.20;99.90;;;;;;4960681;28;20118;-83
2021/10/20 08:38:01;;;;;;;20.05;13.02;;;16.20;99.90;;;;;;4968269;28;20039;-82
2021/10/20 08:40:35;;;;;;;18.65;12.20;;;16.30;99.90;;;;;;4959037;28;20051;-82
2021/10/20 08:43:02;;;;;;;17.90;13.13;;;16.30;99.90;;;;;;4975706;28;20062;-86
2021/10/20 08:45:28;;;;;;;14.57;12.00;;;16.30;99.90;;;;;;4922718;28;20478;-88
2021/10/20 08:47:54;;;;;;;17.08;12.20;;;16.40;99.90;;;;;;4952389;28;20075;-82
2021/10/20 08:50:25;;;;;;;13.73;10.90;;;16.40;99.90;;;;;;4953184;28;20138;-81
2021/10/20 08:52:52;;;;;;;15.18;11.38;;;16.40;99.90;;;;;;4953687;28;20051;-81
2021/10/20 08:55:19;;;;;;;18.63;11.85;;;16.40;99.90;;;;;;4975489;28;20040;-80
2021/10/20 08:57:46;;;;;;;15.25;10.25;;;16.40;99.90;;;;;;4953033;28;20051;-84
2021/10/20 09:00:14;;;;;;;14.07;9.65;;;16.50;99.90;;;;;;4955104;28;20043;-84
2021/10/20 09:02:41;;;;;;;14.73;10.35;;;16.60;99.90;;;;;;4957080;28;20514;-81
2021/10/20 09:05:12;;;;;;;15.40;9.80;;;16.70;99.90;;;;;;4950445;28;20115;-80
2021/10/20 09:07:47;;;;;;;18.08;9.45;;;16.80;99.90;;;;;;4959521;28;20047;-82
2021/10/20 09:10:14;;;;;;;16.58;9.23;;;16.80;99.90;;;;;;4939513;28;20090;-80
2021/10/20 09:12:41;;;;;;;16.10;8.90;;;16.80;99.90;;;;;;4953299;28;20047;-80
2021/10/20 09:15:15;;;;;;;12.30;8.60;;;16.90;99.90;;;;;;4953684;28;20069;-80
2021/10/20 09:17:44;;;;;;;17.17;9.32;;;16.80;99.90;;;;;;4957405;28;20131;-79
2021/10/20 09:20:22;;;;;;;14.15;8.93;;;16.80;99.90;;;;;;4950228;28;20071;-80
2021/10/20 09:22:56;;;;;;;13.85;9.10;;;16.80;99.90;;;;;;4953196;28;20070;-80
2021/10/20 09:25:24;;;;;;;13.18;8.95;;;16.70;99.90;;;;;;4964350;28;20405;-80
2021/10/20 09:27:51;;;;;;;19.40;8.80;;;16.70;99.90;;;;;;4947908;29;20134;-80
2021/10/20 09:30:17;;;;;;;14.90;9.00;;;16.60;99.90;;;;;;4959870;28;20493;-82
2021/10/20 09:32:43;;;;;;;14.70;9.38;;;16.60;99.90;;;;;;4975198;28;20113;-81
2021/10/20 09:35:12;;;;;;;11.15;8.30;;;16.60;99.90;;;;;;4990142;28;20038;-80
2021/10/20 09:37:39;;;;;;;14.57;9.32;;;16.60;99.90;;;;;;4967506;28;20125;-80
2021/10/20 09:40:10;;;;;;;10.27;8.82;;;16.50;99.90;;;;;;4965413;28;20121;-82
2021/10/20 09:42:46;;;;;;;16.00;9.18;;;16.50;99.90;;;;;;4953948;28;20555;-82
2021/10/20 09:45:18;;;;;;;14.55;9.02;;;16.50;99.90;;;;;;4938300;28;20059;-82
2021/10/20 09:47:44;;;;;;;13.25;9.15;;;16.50;99.90;;;;;;4955917;28;20059;-82
2021/10/20 09:50:11;;;;;;;11.25;8.30;;;16.40;99.90;;;;;;4958251;28;20401;-82
2021/10/20 09:52:51;;;;;;;13.38;8.55;;;16.50;99.90;;;;;;4983100;28;20049;-83
2021/10/20 09:55:28;;;;;;;10.13;7.65;;;16.50;99.90;;;;;;4973575;28;20479;-83
2021/10/20 09:58:11;;;;;;;13.57;8.35;;;16.50;99.90;;;;;;4974472;28;20464;-84
2021/10/20 10:00:40;;;;;;;10.18;8.13;;;16.50;99.90;;;;;;4959809;28;20050;-81
2021/10/20 10:03:06;;;;;;;13.55;9.00;;;16.50;99.90;;;;;;4977023;28;20046;-83
2021/10/20 10:05:32;;;;;;;10.70;8.15;;;16.60;99.90;;;;;;4976711;28;20133;-83
2021/10/20 10:08:00;;;;;;;10.57;8.57;;;16.70;99.90;;;;;;4977382;28;20635;-82
2021/10/20 10:10:26;;;;;;;13.68;8.70;;;16.80;99.90;;;;;;4975869;28;20513;-82
2021/10/20 10:13:04;;;;;;;9.45;8.43;;;16.80;99.90;;;;;;4959973;28;20061;-82
2021/10/20 10:15:35;;;;;;;13.23;9.07;;;16.80;99.90;;;;;;4978418;28;20080;-83
2021/10/20 10:18:03;;;;;;;13.35;9.15;;;16.80;99.90;;;;;;4980520;28;20049;-83
2021/10/20 10:20:37;;;;;;;9.27;8.10;;;16.90;99.90;;;;;;4961023;28;20046;-80
2021/10/20 10:23:06;;;;;;;12.82;8.48;;;16.90;99.90;;;;;;5007894;28;20058;-83
2021/10/20 10:25:38;;;;;;;11.57;8.82;;;16.90;99.90;;;;;;4975409;28;20057;-79
2021/10/20 10:28:23;;;;;;;12.65;8.02;;;16.80;99.90;;;;;;4976547;28;20540;-79
2021/10/20 10:31:10;;;;;;;10.80;7.90;;;16.80;99.90;;;;;;4972538;28;20070;-81
2021/10/20 10:33:57;;;;;;;11.18;7.75;;;16.80;99.90;;;;;;4972723;28;20315;-81
2021/10/20 10:36:24;;;;;;;8.93;7.43;;;16.70;99.90;;;;;;4970890;28;20042;-81
2021/10/20 10:39:08;;;;;;;12.95;8.05;;;16.70;99.90;;;;;;4969743;28;20320;-81
2021/10/20 10:41:41;;;;;;;14.27;7.90;;;16.70;99.90;;;;;;4972850;28;20069;-81
2021/10/20 10:44:10;;;;;;;12.60;7.70;;;16.70;99.90;;;;;;4972882;28;20059;-78
2021/10/20 10:46:39;;;;;;;11.70;7.57;;;16.70;99.90;;;;;;4955780;28;20149;-80
2021/10/20 10:49:22;;;;;;;11.60;7.53;;;16.80;99.90;;;;;;4947931;28;20043;-80
2021/10/20 10:52:11;;;;;;;15.75;7.85;;;16.80;99.90;;;;;;4956126;28;20059;-81
2021/10/20 10:54:38;;;;;;;10.00;8.02;;;16.70;99.90;;;;;;4946103;29;20047;-82
2021/10/20 10:57:12;;;;;;;11.07;8.07;;;16.70;99.90;;;;;;4965292;28;20077;-84
2021/10/20 10:59:38;;;;;;;9.95;7.95;;;16.60;99.90;;;;;;4953762;28;20043;-80
2021/10/20 11:02:03;;;;;;;16.60;8.73;;;16.50;99.90;;;;;;4971256;28;20517;-81
2021/10/20 11:04:36;;;;;;;12.98;8.20;;;16.40;99.90;;;;;;4970511;28;20403;-81
2021/10/20 11:07:03;;;;;;;13.85;9.57;;;16.30;99.90;;;;;;4965556;28;20050;-81
2021/10/20 11:09:32;;;;;;;13.57;8.40;;;16.20;99.90;;;;;;4969676;28;20760;-80
2021/10/20 11:12:00;;;;;;;14.13;8.82;;;16.20;99.90;;;;;;4970673;28;20138;-86
2021/10/20 11:14:28;;;;;;;15.77;9.55;;;16.10;99.90;;;;;;4954345;28;20503;-83
2021/10/20 11:17:04;;;;;;;16.00;9.88;;;16.00;99.90;;;;;;4971441;28;20129;-81
2021/10/20 11:19:31;;;;;;;16.02;9.30;;;15.90;99.90;;;;;;4969462;28;20086;-83
2021/10/20 11:21:58;;;;;;;13.70;9.20;;;15.90;99.90;;;;;;4986413;28;20425;-80
2021/10/20 11:24:23;;;;;;;12.68;9.75;;;15.80;99.90;;;;;;4954007;28;20054;-82
2021/10/20 11:26:53;;;;;;;13.13;9.50;;;15.80;99.90;;;;;;4988977;28;20144;-78
2021/10/20 11:29:19;;;;;;;12.77;9.98;;;15.80;99.90;;;;;;4971792;28;20726;-79
2021/10/20 11:31:57;;;;;;;13.82;9.60;;;15.80;99.90;;;;;;4968355;28;20142;-80
2021/10/20 11:34:28;;;;;;;13.52;9.80;;;15.70;99.90;;;;;;4970750;28;20054;-79
2021/10/20 11:37:00;;;;;;;12.57;9.38;;;15.80;99.90;;;;;;4972076;28;20051;-81
2021/10/20 11:39:29;;;;;;;13.20;10.10;;;15.90;99.90;;;;;;4971085;28;20063;-80
2021/10/20 11:41:57;;;;;;;14.13;10.82;;;15.80;99.90;;;;;;4952714;28;20150;-83
2021/10/20 11:44:34;;;;;;;11.77;9.45;;;15.90;99.90;;;;;;4970459;28;20062;-81
2021/10/20 11:47:07;;;;;;;17.48;9.70;;;15.90;99.90;;;;;;4952244;29;20644;-80
2021/10/20 11:49:35;;;;;;;15.23;9.82;;;15.90;99.90;;;;;;4953600;28;20051;-82
2021/10/20 11:52:04;;;;;;;14.45;9.70;;;15.90;99.90;;;;;;4948806;28;20051;-79
2021/10/20 11:54:30;;;;;;;14.27;9.75;;;16.00;99.90;;;;;;4953268;29;20043;-80
2021/10/20 11:56:58;;;;;;;18.77;9.30;;;16.10;99.90;;;;;;4961997;28;20034;-81
2021/10/20 11:59:29;;;;;;;13.18;9.13;;;16.10;99.90;;;;;;4968577;28;20122;-82
2021/10/20 12:01:56;;;;;;;15.13;8.65;;;16.20;99.90;;;;;;4970314;28;20059;-83
2021/10/20 12:04:23;;;;;;;12.40;7.43;;;16.30;99.90;;;;;;4971514;28;20047;-82
2021/10/20 12:06:52;;;;;;;16.92;8.63;;;16.40;99.90;;;;;;4962110;28;20145;-82
2021/10/20 12:09:18;;;;;;;13.35;7.78;;;16.40;99.90;;;;;;4971750;28;20053;-81
2021/10/20 12:11:45;;;;;;;15.70;7.57;;;16.50;99.90;;;;;;4971213;28;20558;-82
2021/10/20 12:14:14;;;;;;;15.70;7.85;;;16.50;99.90;;;;;;4964786;28;20403;-82
2021/10/20 12:16:42;;;;;;;15.35;6.70;;;16.50;99.90;;;;;;4952710;29;20328;-82
2021/10/20 12:19:12;;;;;;;10.35;5.63;;;16.50;99.90;;;;;;4962990;28;20507;-81
2021/10/20 12:21:43;;;;;;;15.45;6.20;;;16.70;99.90;;;;;;4968719;28;20042;-83
2021/10/20 12:24:09;;;;;;;15.57;6.57;;;16.80;99.90;;;;;;4969696;28;20125;-82
2021/10/20 12:26:37;;;;;;;13.38;6.50;;;16.80;99.90;;;;;;4951877;28;20062;-81
2021/10/20 12:29:08;;;;;;;15.13;5.88;;;16.80;99.90;;;;;;4969928;28;20039;-83
2021/10/20 12:31:35;;;;;;;16.38;5.85;;;16.80;99.90;;;;;;4966185;28;20074;-83
2021/10/20 12:34:02;;;;;;;12.70;5.63;;;16.80;99.90;;;;;;4953511;28;20070;-81
2021/10/20 12:36:29;;;;;;;14.05;5.53;;;16.80;99.90;;;;;;4953312;28;20047;-83
2021/10/20 12:38:57;;;;;;;16.98;6.22;;;16.80;99.90;;;;;;4960907;28;20049;-83
2021/10/20 12:41:32;;;;;;;20.13;5.60;;;16.90;99.90;;;;;;4966979;28;20050;-81
2021/10/20 12:44:00;;;;;;;;;;;17.00;99.90;;;;;;4969766;28;20129;-82
2021/10/20 12:46:28;;;;;;;15.23;5.13;;;17.00;99.90;;;;;;4969245;28;19922;-82
2021/10/20 12:48:54;;;;;;;18.05;5.25;;;17.00;99.90;;;;;;4953853;28;20369;-82
2021/10/20 12:51:27;;;;;;;21.17;5.82;;;17.10;99.90;;;;;;4962721;28;20169;-82
2021/10/20 12:54:00;;;;;;;20.40;5.32;;;17.10;99.90;;;;;;4966477;28;20081;-81
2021/10/20 12:56:27;;;;;;;19.58;6.03;;;17.20;99.90;;;;;;4969122;28;20074;-82
2021/10/20 12:59:07;;;;;;;20.63;5.40;;;17.10;99.90;;;;;;4969884;28;20047;-82
2021/10/20 13:01:35;;;;;;;17.55;5.10;;;17.10;99.90;;;;;;4965904;28;20043;-83
2021/10/20 13:04:03;;;;;;;20.52;5.95;;;17.20;99.90;;;;;;4966588;28;20065;-83
2021/10/20 13:06:57;;;;;;;19.77;5.72;;;17.20;99.90;;;;;;4983477;28;20109;-80
2021/10/20 13:10:11;;;;;;;;;;;;;;;;;;;;;